sensor_id;sensor_type;location;lat;lon;timestamp;pressure;altitude;pressure_sealevel;temperature;humidity
67697;BME280;54486;51.442;6.778;2024-03-02T00:00:31;76005.47;;;-141.21;54.17
67697;BME280;54486;51.442;6.778;2024-03-02T00:02:59;75991.44;;;-141.21;53.91
67697;BME280;54486;51.442;6.778;2024-03-02T00:05:26;75993.44;;;-141.21;54.03
67697;BME280;54486;51.442;6.778;2024-03-02T00:07:57;75997.47;;;-141.21;53.76
67697;BME280;54486;51.442;6.778;2024-03-02T00:10:26;75985.44;;;-141.21;53.63
67697;BME280;54486;51.442;6.778;2024-03-02T00:12:58;75985.44;;;-141.21;53.69
67697;BME280;54486;51.442;6.778;2024-03-02T00:16:01;75979.44;;;-141.21;54.10
67697;BME280;54486;51.442;6.778;2024-03-02T00:18:33;75969.44;;;-141.21;53.89
67697;BME280;54486;51.442;6.778;2024-03-02T00:21:02;75969.44;;;-141.21;53.91
67697;BME280;54486;51.442;6.778;2024-03-02T00:23:31;75965.44;;;-141.21;53.85
67697;BME280;54486;51.442;6.778;2024-03-02T00:26:00;75973.44;;;-141.21;54.07
67697;BME280;54486;51.442;6.778;2024-03-02T00:28:30;75957.44;;;-141.21;54.18
67697;BME280;54486;51.442;6.778;2024-03-02T00:31:03;75957.44;;;-141.21;54.17
67697;BME280;54486;51.442;6.778;2024-03-02T00:33:33;75969.44;;;-141.21;54.43
67697;BME280;54486;51.442;6.778;2024-03-02T00:36:02;75953.44;;;-141.21;54.38
67697;BME280;54486;51.442;6.778;2024-03-02T00:38:31;75945.44;;;-141.21;54.43
67697;BME280;54486;51.442;6.778;2024-03-02T00:41:04;75949.44;;;-141.21;54.08
67697;BME280;54486;51.442;6.778;2024-03-02T00:44:14;75953.44;;;-141.21;54.09
67697;BME280;54486;51.442;6.778;2024-03-02T00:46:21;75953.44;;;-141.21;54.17
67697;BME280;54486;51.442;6.778;2024-03-02T00:48:54;75957.44;;;-141.21;54.38
67697;BME280;54486;51.442;6.778;2024-03-02T00:51:33;75957.44;;;-141.21;54.16
67697;BME280;54486;51.442;6.778;2024-03-02T00:54:07;75953.44;;;-141.21;54.23
67697;BME280;54486;51.442;6.778;2024-03-02T00:56:35;75953.44;;;-141.21;54.23
67697;BME280;54486;51.442;6.778;2024-03-02T00:59:03;75949.44;;;-141.21;54.21
67697;BME280;54486;51.442;6.778;2024-03-02T01:01:30;75949.44;;;-141.21;54.41
67697;BME280;54486;51.442;6.778;2024-03-02T01:03:58;75951.44;;;-141.21;54.26
67697;BME280;54486;51.442;6.778;2024-03-02T01:06:26;75953.44;;;-141.21;54.21
67697;BME280;54486;51.442;6.778;2024-03-02T01:08:54;75961.44;;;-141.21;54.11
67697;BME280;54486;51.442;6.778;2024-03-02T01:11:21;75957.44;;;-141.21;54.03
67697;BME280;54486;51.442;6.778;2024-03-02T01:13:52;75957.44;;;-141.21;54.40
67697;BME280;54486;51.442;6.778;2024-03-02T01:16:20;75969.44;;;-141.21;54.25
67697;BME280;54486;51.442;6.778;2024-03-02T01:18:48;75965.44;;;-141.21;54.44
67697;BME280;54486;51.442;6.778;2024-03-02T01:21:15;75961.44;;;-141.21;54.13
67697;BME280;54486;51.442;6.778;2024-03-02T01:23:43;75943.44;;;-141.21;54.26
67697;BME280;54486;51.442;6.778;2024-03-02T01:26:10;75943.44;;;-141.21;54.25
67697;BME280;54486;51.442;6.778;2024-03-02T01:28:38;75945.44;;;-141.21;54.10
67697;BME280;54486;51.442;6.778;2024-03-02T01:31:05;75929.41;;;-141.21;54.33
67697;BME280;54486;51.442;6.778;2024-03-02T01:33:32;75949.44;;;-141.21;54.19
67697;BME280;54486;51.442;6.778;2024-03-02T01:36:00;75951.44;;;-141.21;54.29
67697;BME280;54486;51.442;6.778;2024-03-02T01:38:27;75953.44;;;-141.21;54.23
67697;BME280;54486;51.442;6.778;2024-03-02T01:40:55;75953.44;;;-141.21;54.29
67697;BME280;54486;51.442;6.778;2024-03-02T01:43:24;75953.44;;;-141.21;54.12
67697;BME280;54486;51.442;6.778;2024-03-02T01:45:51;75957.44;;;-141.21;54.10
67697;BME280;54486;51.442;6.778;2024-03-02T01:48:19;75953.44;;;-141.21;54.22
67697;BME280;54486;51.442;6.778;2024-03-02T01:50:46;75953.44;;;-141.21;54.21
67697;BME280;54486;51.442;6.778;2024-03-02T01:53:14;75953.44;;;-141.21;54.23
67697;BME280;54486;51.442;6.778;2024-03-02T01:55:41;75951.44;;;-141.21;54.27
67697;BME280;54486;51.442;6.778;2024-03-02T01:58:09;75953.44;;;-141.21;53.92
67697;BME280;54486;51.442;6.778;2024-03-02T02:00:36;75953.44;;;-141.21;53.81
67697;BME280;54486;51.442;6.778;2024-03-02T02:03:04;75957.44;;;-141.21;53.84
67697;BME280;54486;51.442;6.778;2024-03-02T02:05:31;75957.44;;;-141.21;54.19
67697;BME280;54486;51.442;6.778;2024-03-02T02:07:58;75959.44;;;-141.21;54.08
67697;BME280;54486;51.442;6.778;2024-03-02T02:10:26;75953.44;;;-141.21;54.13
67697;BME280;54486;51.442;6.778;2024-03-02T02:12:53;75953.44;;;-141.21;54.31
67697;BME280;54486;51.442;6.778;2024-03-02T02:15:28;75953.44;;;-141.21;54.07
67697;BME280;54486;51.442;6.778;2024-03-02T02:17:57;75945.44;;;-141.21;53.80
67697;BME280;54486;51.442;6.778;2024-03-02T02:20:27;75947.44;;;-141.21;53.85
67697;BME280;54486;51.442;6.778;2024-03-02T02:25:22;75945.44;;;-141.21;54.15
67697;BME280;54486;51.442;6.778;2024-03-02T02:27:49;75945.44;;;-141.21;53.91
67697;BME280;54486;51.442;6.778;2024-03-02T02:30:21;75949.44;;;-141.21;54.14
67697;BME280;54486;51.442;6.778;2024-03-02T02:32:49;75945.44;;;-141.21;54.09
67697;BME280;54486;51.442;6.778;2024-03-02T02:35:16;75939.44;;;-141.21;54.30
67697;BME280;54486;51.442;6.778;2024-03-02T02:37:45;75941.44;;;-141.21;54.06
67697;BME280;54486;51.442;6.778;2024-03-02T02:40:13;75951.44;;;-141.21;53.97
67697;BME280;54486;51.442;6.778;2024-03-02T02:42:41;75953.44;;;-141.21;53.93
67697;BME280;54486;51.442;6.778;2024-03-02T02:45:08;75949.44;;;-141.21;53.99
67697;BME280;54486;51.442;6.778;2024-03-02T02:47:35;75953.44;;;-141.21;53.83
67697;BME280;54486;51.442;6.778;2024-03-02T02:50:03;75949.44;;;-141.21;54.02
67697;BME280;54486;51.442;6.778;2024-03-02T02:52:32;75945.44;;;-141.21;54.21
67697;BME280;54486;51.442;6.778;2024-03-02T02:55:00;75941.44;;;-141.21;53.99
67697;BME280;54486;51.442;6.778;2024-03-02T02:57:27;75941.44;;;-141.21;54.07
67697;BME280;54486;51.442;6.778;2024-03-02T02:59:57;75941.44;;;-141.21;54.05
67697;BME280;54486;51.442;6.778;2024-03-02T03:02:24;75943.44;;;-141.21;54.10
67697;BME280;54486;51.442;6.778;2024-03-02T03:04:51;75953.44;;;-141.21;53.61
67697;BME280;54486;51.442;6.778;2024-03-02T03:07:18;75945.44;;;-141.21;53.92
67697;BME280;54486;51.442;6.778;2024-03-02T03:09:45;75953.44;;;-141.21;53.74
67697;BME280;54486;51.442;6.778;2024-03-02T03:12:13;75945.44;;;-141.21;54.16
67697;BME280;54486;51.442;6.778;2024-03-02T03:14:40;75945.44;;;-141.21;54.00
67697;BME280;54486;51.442;6.778;2024-03-02T03:17:08;75941.44;;;-141.21;53.99
67697;BME280;54486;51.442;6.778;2024-03-02T03:19:37;75953.44;;;-141.21;53.67
67697;BME280;54486;51.442;6.778;2024-03-02T03:22:05;75953.44;;;-141.21;53.64
67697;BME280;54486;51.442;6.778;2024-03-02T03:24:33;75945.44;;;-141.21;53.86
67697;BME280;54486;51.442;6.778;2024-03-02T03:27:00;75957.44;;;-141.21;53.93
67697;BME280;54486;51.442;6.778;2024-03-02T03:29:27;75977.44;;;-141.21;53.24
67697;BME280;54486;51.442;6.778;2024-03-02T03:31:54;75985.44;;;-141.21;53.77
67697;BME280;54486;51.442;6.778;2024-03-02T03:34:21;75997.47;;;-141.21;53.52
67697;BME280;54486;51.442;6.778;2024-03-02T03:36:49;75983.44;;;-141.21;53.67
67697;BME280;54486;51.442;6.778;2024-03-02T03:39:16;75977.44;;;-141.21;53.50
67697;BME280;54486;51.442;6.778;2024-03-02T03:41:44;75977.44;;;-141.21;53.27
67697;BME280;54486;51.442;6.778;2024-03-02T03:44:11;75989.44;;;-141.21;53.48
67697;BME280;54486;51.442;6.778;2024-03-02T03:46:39;76001.47;;;-141.21;53.47
67697;BME280;54486;51.442;6.778;2024-03-02T03:49:07;76013.47;;;-141.21;53.39
67697;BME280;54486;51.442;6.778;2024-03-02T03:51:34;75997.47;;;-141.21;53.57
67697;BME280;54486;51.442;6.778;2024-03-02T03:54:02;76005.47;;;-141.21;53.22
67697;BME280;54486;51.442;6.778;2024-03-02T03:56:30;75985.44;;;-141.21;53.47
67697;BME280;54486;51.442;6.778;2024-03-02T03:58:57;75977.44;;;-141.21;53.40
67697;BME280;54486;51.442;6.778;2024-03-02T04:01:26;75979.44;;;-141.21;53.41
67697;BME280;54486;51.442;6.778;2024-03-02T04:03:54;75989.44;;;-141.21;53.49
67697;BME280;54486;51.442;6.778;2024-03-02T04:06:21;75985.44;;;-141.21;53.78
67697;BME280;54486;51.442;6.778;2024-03-02T04:08:49;75983.44;;;-141.21;53.79
67697;BME280;54486;51.442;6.778;2024-03-02T04:11:17;75993.44;;;-141.21;53.79
67697;BME280;54486;51.442;6.778;2024-03-02T04:13:43;75985.44;;;-141.21;53.64
67697;BME280;54486;51.442;6.778;2024-03-02T04:16:11;75989.44;;;-141.21;53.77
67697;BME280;54486;51.442;6.778;2024-03-02T04:18:39;75997.47;;;-141.21;53.91
67697;BME280;54486;51.442;6.778;2024-03-02T04:21:07;75993.44;;;-141.21;53.96
67697;BME280;54486;51.442;6.778;2024-03-02T04:23:34;75997.47;;;-141.21;54.05
67697;BME280;54486;51.442;6.778;2024-03-02T04:26:02;75993.44;;;-141.21;53.87
67697;BME280;54486;51.442;6.778;2024-03-02T04:28:29;75993.44;;;-141.21;54.15
67697;BME280;54486;51.442;6.778;2024-03-02T04:30:56;75993.44;;;-141.21;54.12
67697;BME280;54486;51.442;6.778;2024-03-02T04:33:24;75993.44;;;-141.21;54.26
67697;BME280;54486;51.442;6.778;2024-03-02T04:35:51;75999.47;;;-141.21;54.21
67697;BME280;54486;51.442;6.778;2024-03-02T04:38:18;75999.47;;;-141.21;54.27
67697;BME280;54486;51.442;6.778;2024-03-02T04:40:45;76007.47;;;-141.21;54.19
67697;BME280;54486;51.442;6.778;2024-03-02T04:43:12;76005.47;;;-141.21;54.39
67697;BME280;54486;51.442;6.778;2024-03-02T04:45:43;76005.47;;;-141.21;54.42
67697;BME280;54486;51.442;6.778;2024-03-02T04:48:10;76013.47;;;-141.21;54.47
67697;BME280;54486;51.442;6.778;2024-03-02T04:50:37;76013.47;;;-141.21;54.33
67697;BME280;54486;51.442;6.778;2024-03-02T04:53:05;76013.47;;;-141.21;54.33
67697;BME280;54486;51.442;6.778;2024-03-02T04:55:32;76017.47;;;-141.21;54.44
67697;BME280;54486;51.442;6.778;2024-03-02T04:58:02;76017.47;;;-141.21;54.55
67697;BME280;54486;51.442;6.778;2024-03-02T05:00:29;76009.47;;;-141.21;54.61
67697;BME280;54486;51.442;6.778;2024-03-02T05:02:56;76017.47;;;-141.21;54.57
67697;BME280;54486;51.442;6.778;2024-03-02T05:05:24;76013.47;;;-141.21;54.62
67697;BME280;54486;51.442;6.778;2024-03-02T05:07:51;76021.47;;;-141.21;54.53
67697;BME280;54486;51.442;6.778;2024-03-02T05:10:18;76017.47;;;-141.21;54.47
67697;BME280;54486;51.442;6.778;2024-03-02T05:12:45;76029.47;;;-141.21;54.43
67697;BME280;54486;51.442;6.778;2024-03-02T05:15:14;76025.47;;;-141.21;54.27
67697;BME280;54486;51.442;6.778;2024-03-02T05:17:41;76035.47;;;-141.21;54.43
67697;BME280;54486;51.442;6.778;2024-03-02T05:20:12;76037.47;;;-141.21;54.61
67697;BME280;54486;51.442;6.778;2024-03-02T05:22:39;76025.47;;;-141.21;54.50
67697;BME280;54486;51.442;6.778;2024-03-02T05:25:07;76029.47;;;-141.21;54.27
67697;BME280;54486;51.442;6.778;2024-03-02T05:27:34;76033.47;;;-141.21;54.28
67697;BME280;54486;51.442;6.778;2024-03-02T05:30:02;76037.47;;;-141.21;54.09
67697;BME280;54486;51.442;6.778;2024-03-02T05:32:30;76045.47;;;-141.21;54.57
67697;BME280;54486;51.442;6.778;2024-03-02T05:34:57;76045.47;;;-141.21;54.51
67697;BME280;54486;51.442;6.778;2024-03-02T05:37:24;76041.47;;;-141.21;54.47
67697;BME280;54486;51.442;6.778;2024-03-02T05:39:51;76053.47;;;-141.21;54.37
67697;BME280;54486;51.442;6.778;2024-03-02T05:42:19;76051.47;;;-141.21;54.48
67697;BME280;54486;51.442;6.778;2024-03-02T05:44:46;76051.47;;;-141.21;54.25
67697;BME280;54486;51.442;6.778;2024-03-02T05:47:14;76045.47;;;-141.21;54.51
67697;BME280;54486;51.442;6.778;2024-03-02T05:49:41;76045.47;;;-141.21;54.34
67697;BME280;54486;51.442;6.778;2024-03-02T05:52:10;76045.47;;;-141.21;54.54
67697;BME280;54486;51.442;6.778;2024-03-02T05:54:38;76045.47;;;-141.21;54.67
67697;BME280;54486;51.442;6.778;2024-03-02T05:57:06;76053.47;;;-141.21;54.55
67697;BME280;54486;51.442;6.778;2024-03-02T05:59:44;76053.47;;;-141.21;54.51
67697;BME280;54486;51.442;6.778;2024-03-02T06:02:11;76057.47;;;-141.21;54.28
67697;BME280;54486;51.442;6.778;2024-03-02T06:04:39;76053.47;;;-141.21;54.35
67697;BME280;54486;51.442;6.778;2024-03-02T06:07:06;76057.47;;;-141.21;54.55
67697;BME280;54486;51.442;6.778;2024-03-02T06:09:33;76057.47;;;-141.21;54.49
67697;BME280;54486;51.442;6.778;2024-03-02T06:12:00;76053.47;;;-141.21;54.05
67697;BME280;54486;51.442;6.778;2024-03-02T06:14:28;76063.50;;;-141.21;54.43
67697;BME280;54486;51.442;6.778;2024-03-02T06:16:55;76069.50;;;-141.21;54.48
67697;BME280;54486;51.442;6.778;2024-03-02T06:19:23;76071.50;;;-141.21;54.36
67697;BME280;54486;51.442;6.778;2024-03-02T06:21:50;76073.50;;;-141.21;54.35
67697;BME280;54486;51.442;6.778;2024-03-02T06:24:18;76065.50;;;-141.21;54.07
67697;BME280;54486;51.442;6.778;2024-03-02T06:26:45;76071.50;;;-141.21;54.18
67697;BME280;54486;51.442;6.778;2024-03-02T06:29:13;76069.50;;;-141.21;54.31
67697;BME280;54486;51.442;6.778;2024-03-02T06:31:40;76069.50;;;-141.21;54.24
67697;BME280;54486;51.442;6.778;2024-03-02T06:34:08;76073.50;;;-141.21;54.39
67697;BME280;54486;51.442;6.778;2024-03-02T06:36:35;76069.50;;;-141.21;54.45
67697;BME280;54486;51.442;6.778;2024-03-02T06:39:03;76071.50;;;-141.21;54.41
67697;BME280;54486;51.442;6.778;2024-03-02T06:41:30;76077.50;;;-141.21;54.44
67697;BME280;54486;51.442;6.778;2024-03-02T06:43:58;76085.50;;;-141.21;54.39
67697;BME280;54486;51.442;6.778;2024-03-02T06:46:27;76085.50;;;-141.21;54.30
67697;BME280;54486;51.442;6.778;2024-03-02T06:48:55;76089.50;;;-141.21;54.28
67697;BME280;54486;51.442;6.778;2024-03-02T06:51:22;76089.50;;;-141.21;54.17
67697;BME280;54486;51.442;6.778;2024-03-02T06:53:49;76093.50;;;-141.21;54.18
67697;BME280;54486;51.442;6.778;2024-03-02T06:56:16;76087.50;;;-141.21;54.07
67697;BME280;54486;51.442;6.778;2024-03-02T06:58:43;76081.50;;;-141.21;54.09
67697;BME280;54486;51.442;6.778;2024-03-02T07:01:10;76085.50;;;-141.21;54.20
67697;BME280;54486;51.442;6.778;2024-03-02T07:03:38;76093.50;;;-141.21;54.17
67697;BME280;54486;51.442;6.778;2024-03-02T07:06:06;76089.50;;;-141.21;54.29
67697;BME280;54486;51.442;6.778;2024-03-02T07:08:34;76091.50;;;-141.21;54.13
67697;BME280;54486;51.442;6.778;2024-03-02T07:11:01;76093.50;;;-141.21;54.38
67697;BME280;54486;51.442;6.778;2024-03-02T07:13:28;76095.50;;;-141.21;54.27
67697;BME280;54486;51.442;6.778;2024-03-02T07:15:55;76093.50;;;-141.21;54.37
67697;BME280;54486;51.442;6.778;2024-03-02T07:18:41;76101.50;;;-141.21;54.19
67697;BME280;54486;51.442;6.778;2024-03-02T07:21:09;76097.50;;;-141.21;54.35
67697;BME280;54486;51.442;6.778;2024-03-02T07:23:36;76095.50;;;-141.21;54.27
67697;BME280;54486;51.442;6.778;2024-03-02T07:26:04;76105.50;;;-141.21;54.09
67697;BME280;54486;51.442;6.778;2024-03-02T07:28:34;76105.50;;;-141.21;54.32
67697;BME280;54486;51.442;6.778;2024-03-02T07:31:03;76097.50;;;-141.21;54.09
67697;BME280;54486;51.442;6.778;2024-03-02T07:33:33;76109.50;;;-141.21;54.13
67697;BME280;54486;51.442;6.778;2024-03-02T07:36:00;76105.50;;;-141.21;54.12
67697;BME280;54486;51.442;6.778;2024-03-02T07:38:32;76101.50;;;-141.21;54.15
67697;BME280;54486;51.442;6.778;2024-03-02T07:41:01;76095.50;;;-141.21;54.05
67697;BME280;54486;51.442;6.778;2024-03-02T07:43:29;76097.50;;;-141.21;54.13
67697;BME280;54486;51.442;6.778;2024-03-02T07:45:58;76093.50;;;-141.21;54.12
67697;BME280;54486;51.442;6.778;2024-03-02T07:48:26;76087.50;;;-141.21;54.15
67697;BME280;54486;51.442;6.778;2024-03-02T07:50:54;76085.50;;;-141.21;54.13
67697;BME280;54486;51.442;6.778;2024-03-02T07:53:21;76085.50;;;-141.21;54.28
67697;BME280;54486;51.442;6.778;2024-03-02T07:55:48;76089.50;;;-141.21;54.05
67697;BME280;54486;51.442;6.778;2024-03-02T07:58:16;76103.50;;;-141.21;54.24
67697;BME280;54486;51.442;6.778;2024-03-02T08:00:45;76099.50;;;-141.21;54.22
67697;BME280;54486;51.442;6.778;2024-03-02T08:03:13;76097.50;;;-141.21;54.20
67697;BME280;54486;51.442;6.778;2024-03-02T08:05:41;76097.50;;;-141.21;53.91
67697;BME280;54486;51.442;6.778;2024-03-02T08:08:09;76109.50;;;-141.21;53.93
67697;BME280;54486;51.442;6.778;2024-03-02T08:10:36;76113.50;;;-141.21;54.19
67697;BME280;54486;51.442;6.778;2024-03-02T08:13:04;76109.50;;;-141.21;54.24
67697;BME280;54486;51.442;6.778;2024-03-02T08:15:31;76119.50;;;-141.21;54.03
67697;BME280;54486;51.442;6.778;2024-03-02T08:17:59;76121.50;;;-141.21;54.09
67697;BME280;54486;51.442;6.778;2024-03-02T08:20:27;76121.50;;;-141.21;54.05
67697;BME280;54486;51.442;6.778;2024-03-02T08:22:54;76121.50;;;-141.21;54.22
67697;BME280;54486;51.442;6.778;2024-03-02T08:25:22;76119.50;;;-141.21;54.29
67697;BME280;54486;51.442;6.778;2024-03-02T08:27:49;76109.50;;;-141.21;53.95
67697;BME280;54486;51.442;6.778;2024-03-02T08:30:16;76109.50;;;-141.21;53.81
67697;BME280;54486;51.442;6.778;2024-03-02T08:32:45;76101.50;;;-141.21;53.84
67697;BME280;54486;51.442;6.778;2024-03-02T08:35:14;76101.50;;;-141.21;54.03
67697;BME280;54486;51.442;6.778;2024-03-02T08:37:42;76107.50;;;-141.21;54.07
67697;BME280;54486;51.442;6.778;2024-03-02T08:40:11;76101.50;;;-141.21;53.99
67697;BME280;54486;51.442;6.778;2024-03-02T08:42:43;76101.50;;;-141.21;54.00
67697;BME280;54486;51.442;6.778;2024-03-02T08:45:10;76089.50;;;-141.21;54.00
67697;BME280;54486;51.442;6.778;2024-03-02T08:47:38;76085.50;;;-141.21;54.03
67697;BME280;54486;51.442;6.778;2024-03-02T08:50:06;76109.50;;;-141.21;53.77
67697;BME280;54486;51.442;6.778;2024-03-02T08:52:34;76089.50;;;-141.21;54.20
67697;BME280;54486;51.442;6.778;2024-03-02T08:55:02;76089.50;;;-141.21;54.00
67697;BME280;54486;51.442;6.778;2024-03-02T08:57:29;76097.50;;;-141.21;54.09
67697;BME280;54486;51.442;6.778;2024-03-02T08:59:56;76093.50;;;-141.21;53.87
67697;BME280;54486;51.442;6.778;2024-03-02T09:02:24;76101.50;;;-141.21;53.79
67697;BME280;54486;51.442;6.778;2024-03-02T09:04:52;76105.50;;;-141.21;54.31
67697;BME280;54486;51.442;6.778;2024-03-02T09:07:19;76113.50;;;-141.21;53.50
67697;BME280;54486;51.442;6.778;2024-03-02T09:09:46;76107.50;;;-141.21;53.88
67697;BME280;54486;51.442;6.778;2024-03-02T09:12:13;76129.53;;;-141.21;53.70
67697;BME280;54486;51.442;6.778;2024-03-02T09:14:41;76097.50;;;-141.21;54.15
67697;BME280;54486;51.442;6.778;2024-03-02T09:17:08;76113.50;;;-141.21;53.80
67697;BME280;54486;51.442;6.778;2024-03-02T09:19:38;76105.50;;;-141.21;53.84
67697;BME280;54486;51.442;6.778;2024-03-02T09:22:05;76101.50;;;-141.21;54.11
67697;BME280;54486;51.442;6.778;2024-03-02T09:24:33;76103.50;;;-141.21;53.93
67697;BME280;54486;51.442;6.778;2024-03-02T09:27:01;76091.50;;;-141.21;54.03
67697;BME280;54486;51.442;6.778;2024-03-02T09:29:28;76097.50;;;-141.21;53.61
67697;BME280;54486;51.442;6.778;2024-03-02T09:31:56;76085.50;;;-141.21;54.32
67697;BME280;54486;51.442;6.778;2024-03-02T09:34:24;76091.50;;;-141.21;53.37
67697;BME280;54486;51.442;6.778;2024-03-02T09:36:51;76101.50;;;-141.21;54.08
67697;BME280;54486;51.442;6.778;2024-03-02T09:39:19;76115.50;;;-141.21;53.57
67697;BME280;54486;51.442;6.778;2024-03-02T09:41:48;76097.50;;;-141.21;54.00
67697;BME280;54486;51.442;6.778;2024-03-02T09:44:15;76115.50;;;-141.21;53.80
67697;BME280;54486;51.442;6.778;2024-03-02T09:46:43;76099.50;;;-141.21;53.51
67697;BME280;54486;51.442;6.778;2024-03-02T09:49:11;76089.50;;;-141.21;54.12
67697;BME280;54486;51.442;6.778;2024-03-02T09:51:39;76085.50;;;-141.21;53.10
67697;BME280;54486;51.442;6.778;2024-03-02T09:54:08;76085.50;;;-141.21;53.81
67697;BME280;54486;51.442;6.778;2024-03-02T09:56:48;76073.50;;;-141.21;53.75
67697;BME280;54486;51.442;6.778;2024-03-02T09:59:15;76063.50;;;-141.21;53.81
67697;BME280;54486;51.442;6.778;2024-03-02T10:02:00;76061.50;;;-141.21;53.67
67697;BME280;54486;51.442;6.778;2024-03-02T10:04:31;76053.47;;;-141.21;53.68
67697;BME280;54486;51.442;6.778;2024-03-02T10:07:26;76053.47;;;-141.21;53.79
67697;BME280;54486;51.442;6.778;2024-03-02T10:09:52;76049.47;;;-141.21;53.67
67697;BME280;54486;51.442;6.778;2024-03-02T10:12:19;76049.47;;;-141.21;53.58
67697;BME280;54486;51.442;6.778;2024-03-02T10:14:47;76045.47;;;-141.21;53.33
67697;BME280;54486;51.442;6.778;2024-03-02T10:17:17;76045.47;;;-141.21;54.00
67697;BME280;54486;51.442;6.778;2024-03-02T10:19:45;76041.47;;;-141.21;54.12
67697;BME280;54486;51.442;6.778;2024-03-02T10:22:13;76041.47;;;-141.21;53.59
67697;BME280;54486;51.442;6.778;2024-03-02T10:24:42;76033.47;;;-141.21;54.09
67697;BME280;54486;51.442;6.778;2024-03-02T10:27:23;76035.47;;;-141.21;53.72
67697;BME280;54486;51.442;6.778;2024-03-02T10:29:51;76041.47;;;-141.21;53.44
67697;BME280;54486;51.442;6.778;2024-03-02T10:32:17;76063.50;;;-141.21;52.95
67697;BME280;54486;51.442;6.778;2024-03-02T10:34:46;76055.47;;;-141.21;52.93
67697;BME280;54486;51.442;6.778;2024-03-02T10:37:15;76049.47;;;-141.21;52.79
67697;BME280;54486;51.442;6.778;2024-03-02T10:39:46;76045.47;;;-141.21;52.98
67697;BME280;54486;51.442;6.778;2024-03-02T10:42:15;76055.47;;;-141.21;53.61
67697;BME280;54486;51.442;6.778;2024-03-02T10:44:42;76049.47;;;-141.21;53.10
67697;BME280;54486;51.442;6.778;2024-03-02T10:47:12;76057.47;;;-141.21;52.34
67697;BME280;54486;51.442;6.778;2024-03-02T10:49:41;76065.50;;;-141.21;53.37
67697;BME280;54486;51.442;6.778;2024-03-02T10:52:10;76049.47;;;-141.21;52.36
67697;BME280;54486;51.442;6.778;2024-03-02T10:54:37;76027.47;;;-141.21;53.22
67697;BME280;54486;51.442;6.778;2024-03-02T10:57:07;76025.47;;;-141.21;53.14
67697;BME280;54486;51.442;6.778;2024-03-02T10:59:46;76033.47;;;-141.21;52.44
67697;BME280;54486;51.442;6.778;2024-03-02T11:02:21;76041.47;;;-141.21;53.17
67697;BME280;54486;51.442;6.778;2024-03-02T11:04:49;76023.47;;;-141.21;53.04
67697;BME280;54486;51.442;6.778;2024-03-02T11:07:18;76021.47;;;-141.21;53.13
67697;BME280;54486;51.442;6.778;2024-03-02T11:09:54;76015.47;;;-141.21;52.74
67697;BME280;54486;51.442;6.778;2024-03-02T11:12:31;76005.47;;;-141.21;53.36
67697;BME280;54486;51.442;6.778;2024-03-02T11:15:04;75997.47;;;-141.21;53.50
67697;BME280;54486;51.442;6.778;2024-03-02T11:17:34;75997.47;;;-141.21;52.57
67697;BME280;54486;51.442;6.778;2024-03-02T11:20:03;76005.47;;;-141.21;53.14
67697;BME280;54486;51.442;6.778;2024-03-02T11:22:31;76001.47;;;-141.21;53.08
67697;BME280;54486;51.442;6.778;2024-03-02T11:24:59;75993.44;;;-141.21;53.47
67697;BME280;54486;51.442;6.778;2024-03-02T11:33:00;75993.44;;;-141.21;53.16
67697;BME280;54486;51.442;6.778;2024-03-02T11:35:30;75997.47;;;-141.21;53.06
67697;BME280;54486;51.442;6.778;2024-03-02T11:37:57;75985.44;;;-141.21;53.49
67697;BME280;54486;51.442;6.778;2024-03-02T11:40:28;75985.44;;;-141.21;53.49
67697;BME280;54486;51.442;6.778;2024-03-02T11:42:56;75981.44;;;-141.21;53.64
67697;BME280;54486;51.442;6.778;2024-03-02T11:45:25;75985.44;;;-141.21;53.27
67697;BME280;54486;51.442;6.778;2024-03-02T11:47:57;75989.44;;;-141.21;53.73
67697;BME280;54486;51.442;6.778;2024-03-02T11:50:36;75977.44;;;-141.21;53.89
67697;BME280;54486;51.442;6.778;2024-03-02T11:53:08;75969.44;;;-141.21;53.59
67697;BME280;54486;51.442;6.778;2024-03-02T11:55:39;75969.44;;;-141.21;53.51
67697;BME280;54486;51.442;6.778;2024-03-02T11:58:24;75969.44;;;-141.21;53.90
67697;BME280;54486;51.442;6.778;2024-03-02T12:00:54;75969.44;;;-141.21;53.39
67697;BME280;54486;51.442;6.778;2024-03-02T12:03:24;75977.44;;;-141.21;53.28
67697;BME280;54486;51.442;6.778;2024-03-02T12:05:53;75963.44;;;-141.21;53.41
67697;BME280;54486;51.442;6.778;2024-03-02T12:08:21;75953.44;;;-141.21;53.85
67697;BME280;54486;51.442;6.778;2024-03-02T12:10:59;75951.44;;;-141.21;53.53
67697;BME280;54486;51.442;6.778;2024-03-02T12:13:31;75945.44;;;-141.21;53.81
67697;BME280;54486;51.442;6.778;2024-03-02T12:15:58;75937.44;;;-141.21;53.85
67697;BME280;54486;51.442;6.778;2024-03-02T12:18:26;75941.44;;;-141.21;53.33
67697;BME280;54486;51.442;6.778;2024-03-02T12:20:54;75945.44;;;-141.21;53.31
67697;BME280;54486;51.442;6.778;2024-03-02T12:23:25;75941.44;;;-141.21;53.16
67697;BME280;54486;51.442;6.778;2024-03-02T12:25:53;75929.41;;;-141.21;53.39
67697;BME280;54486;51.442;6.778;2024-03-02T12:28:21;75925.41;;;-141.21;53.41
67697;BME280;54486;51.442;6.778;2024-03-02T12:30:49;75917.41;;;-141.21;53.57
67697;BME280;54486;51.442;6.778;2024-03-02T12:33:16;75933.44;;;-141.21;53.73
67697;BME280;54486;51.442;6.778;2024-03-02T12:35:44;75915.41;;;-141.21;52.96
67697;BME280;54486;51.442;6.778;2024-03-02T12:38:11;75905.41;;;-141.21;53.56
67697;BME280;54486;51.442;6.778;2024-03-02T12:40:39;75903.41;;;-141.21;52.47
67697;BME280;54486;51.442;6.778;2024-03-02T12:43:06;75905.41;;;-141.21;52.96
67697;BME280;54486;51.442;6.778;2024-03-02T12:45:35;75897.41;;;-141.21;53.44
67697;BME280;54486;51.442;6.778;2024-03-02T12:48:02;75897.41;;;-141.21;53.35
67697;BME280;54486;51.442;6.778;2024-03-02T12:50:33;75893.41;;;-141.21;53.93
67697;BME280;54486;51.442;6.778;2024-03-02T12:53:00;75887.41;;;-141.21;53.39
67697;BME280;54486;51.442;6.778;2024-03-02T12:55:27;75891.41;;;-141.21;53.06